sensor_id;sensor_type;location;lat;lon;timestamp;pressure;altitude;pressure_sealevel;temperature;humidity
34241;BME280;20503;50.200;19.508;2024-02-21T00:01:00;101874.11;;;10.09;55.62
34241;BME280;20503;50.200;19.508;2024-02-21T00:02:06;101867.16;;;10.19;55.46
34241;BME280;20503;50.200;19.508;2024-02-21T00:03:07;101868.63;;;10.10;55.42
34241;BME280;20503;50.200;19.508;2024-02-21T00:04:09;101877.59;;;10.11;55.84
34241;BME280;20503;50.200;19.508;2024-02-21T00:05:10;101880.38;;;10.38;54.91
34241;BME280;20503;50.200;19.508;2024-02-21T00:06:12;101871.98;;;10.28;54.51
34241;BME280;20503;50.200;19.508;2024-02-21T00:07:13;101872.97;;;10.27;54.38
34241;BME280;20503;50.200;19.508;2024-02-21T00:08:14;101870.24;;;10.42;54.36
34241;BME280;20503;50.200;19.508;2024-02-21T00:09:15;101873.12;;;10.24;54.69
34241;BME280;20503;50.200;19.508;2024-02-21T00:10:17;101872.77;;;10.30;54.42
34241;BME280;20503;50.200;19.508;2024-02-21T00:11:19;101873.52;;;10.32;54.79
34241;BME280;20503;50.200;19.508;2024-02-21T00:12:20;101874.97;;;10.38;54.79
34241;BME280;20503;50.200;19.508;2024-02-21T00:13:21;101867.48;;;10.56;54.98
34241;BME280;20503;50.200;19.508;2024-02-21T00:14:23;101866.30;;;10.60;54.34
34241;BME280;20503;50.200;19.508;2024-02-21T00:15:25;101867.63;;;10.67;53.80
34241;BME280;20503;50.200;19.508;2024-02-21T00:16:26;101864.27;;;10.63;53.71
34241;BME280;20503;50.200;19.508;2024-02-21T00:17:27;101861.80;;;10.73;54.01
34241;BME280;20503;50.200;19.508;2024-02-21T00:18:28;101861.91;;;10.72;53.72
34241;BME280;20503;50.200;19.508;2024-02-21T00:19:30;101857.99;;;10.63;54.28
34241;BME280;20503;50.200;19.508;2024-02-21T00:20:40;101863.56;;;10.74;54.15
34241;BME280;20503;50.200;19.508;2024-02-21T00:21:41;101859.02;;;10.75;53.99
34241;BME280;20503;50.200;19.508;2024-02-21T00:22:44;101861.88;;;10.59;54.10
34241;BME280;20503;50.200;19.508;2024-02-21T00:23:48;101867.44;;;10.70;53.83
34241;BME280;20503;50.200;19.508;2024-02-21T00:24:51;101863.87;;;10.70;53.23
34241;BME280;20503;50.200;19.508;2024-02-21T00:25:53;101861.37;;;10.67;53.46
34241;BME280;20503;50.200;19.508;2024-02-21T00:26:54;101854.98;;;10.41;53.84
34241;BME280;20503;50.200;19.508;2024-02-21T00:27:55;101853.59;;;10.06;55.30
34241;BME280;20503;50.200;19.508;2024-02-21T00:29:15;101863.89;;;10.14;54.97
34241;BME280;20503;50.200;19.508;2024-02-21T00:30:17;101858.87;;;10.22;54.80
34241;BME280;20503;50.200;19.508;2024-02-21T00:31:18;101857.23;;;10.34;54.90
34241;BME280;20503;50.200;19.508;2024-02-21T00:32:34;101858.40;;;10.57;54.62
34241;BME280;20503;50.200;19.508;2024-02-21T00:33:35;101851.41;;;10.40;54.52
34241;BME280;20503;50.200;19.508;2024-02-21T00:34:36;101853.25;;;10.40;54.01
34241;BME280;20503;50.200;19.508;2024-02-21T00:35:38;101849.69;;;10.39;55.22
34241;BME280;20503;50.200;19.508;2024-02-21T00:36:39;101850.35;;;10.43;54.50
34241;BME280;20503;50.200;19.508;2024-02-21T00:37:40;101852.70;;;10.61;54.68
34241;BME280;20503;50.200;19.508;2024-02-21T00:38:41;101860.39;;;10.68;54.01
34241;BME280;20503;50.200;19.508;2024-02-21T00:39:43;101850.45;;;10.68;54.19
34241;BME280;20503;50.200;19.508;2024-02-21T00:40:44;101850.09;;;10.60;54.34
34241;BME280;20503;50.200;19.508;2024-02-21T00:41:52;101852.39;;;10.66;54.08
34241;BME280;20503;50.200;19.508;2024-02-21T00:42:54;101845.38;;;10.76;54.03
34241;BME280;20503;50.200;19.508;2024-02-21T00:43:55;101843.80;;;10.86;53.88
34241;BME280;20503;50.200;19.508;2024-02-21T00:44:58;101844.33;;;10.52;54.54
34241;BME280;20503;50.200;19.508;2024-02-21T00:45:59;101841.59;;;10.66;53.69
34241;BME280;20503;50.200;19.508;2024-02-21T00:47:19;101845.19;;;10.52;54.05
34241;BME280;20503;50.200;19.508;2024-02-21T00:48:21;101833.28;;;10.42;53.70
34241;BME280;20503;50.200;19.508;2024-02-21T00:49:28;101841.55;;;10.53;54.20
34241;BME280;20503;50.200;19.508;2024-02-21T00:50:30;101832.46;;;10.54;54.02
34241;BME280;20503;50.200;19.508;2024-02-21T00:51:31;101827.49;;;10.61;54.63
34241;BME280;20503;50.200;19.508;2024-02-21T00:52:32;101829.59;;;10.43;53.97
34241;BME280;20503;50.200;19.508;2024-02-21T00:53:47;101833.36;;;10.68;53.78
34241;BME280;20503;50.200;19.508;2024-02-21T00:54:49;101828.61;;;10.71;53.19
34241;BME280;20503;50.200;19.508;2024-02-21T00:55:50;101826.54;;;10.35;54.01
34241;BME280;20503;50.200;19.508;2024-02-21T00:57:16;101827.51;;;10.20;54.77
34241;BME280;20503;50.200;19.508;2024-02-21T00:58:18;101823.84;;;10.35;54.46
34241;BME280;20503;50.200;19.508;2024-02-21T00:59:34;101822.16;;;10.47;54.32
34241;BME280;20503;50.200;19.508;2024-02-21T01:00:35;101814.29;;;10.56;53.93
34241;BME280;20503;50.200;19.508;2024-02-21T01:01:36;101813.86;;;10.50;53.14
34241;BME280;20503;50.200;19.508;2024-02-21T01:02:38;101823.80;;;10.49;54.01
34241;BME280;20503;50.200;19.508;2024-02-21T01:03:39;101810.87;;;10.67;54.43
34241;BME280;20503;50.200;19.508;2024-02-21T01:04:41;101817.80;;;10.71;53.23
34241;BME280;20503;50.200;19.508;2024-02-21T01:05:43;101820.91;;;10.65;52.96
34241;BME280;20503;50.200;19.508;2024-02-21T01:06:44;101816.04;;;10.57;53.92
34241;BME280;20503;50.200;19.508;2024-02-21T01:07:45;101808.33;;;10.51;53.78
34241;BME280;20503;50.200;19.508;2024-02-21T01:08:50;101823.80;;;10.49;54.06
34241;BME280;20503;50.200;19.508;2024-02-21T01:09:51;101819.50;;;10.59;54.46
34241;BME280;20503;50.200;19.508;2024-02-21T01:10:53;101819.73;;;10.69;53.85
34241;BME280;20503;50.200;19.508;2024-02-21T01:11:54;101819.96;;;10.39;53.81
34241;BME280;20503;50.200;19.508;2024-02-21T01:12:56;101816.87;;;10.45;54.17
34241;BME280;20503;50.200;19.508;2024-02-21T01:13:58;101806.61;;;10.50;53.79
34241;BME280;20503;50.200;19.508;2024-02-21T01:14:59;101809.09;;;9.42;56.53
34241;BME280;20503;50.200;19.508;2024-02-21T01:16:00;101806.95;;;9.90;55.91
34241;BME280;20503;50.200;19.508;2024-02-21T01:17:02;101814.87;;;10.20;55.10
34241;BME280;20503;50.200;19.508;2024-02-21T01:18:03;101813.54;;;10.27;54.35
34241;BME280;20503;50.200;19.508;2024-02-21T01:19:05;101810.63;;;9.89;56.07
34241;BME280;20503;50.200;19.508;2024-02-21T01:20:07;101814.43;;;10.13;55.16
34241;BME280;20503;50.200;19.508;2024-02-21T01:21:09;101812.46;;;9.60;56.18
34241;BME280;20503;50.200;19.508;2024-02-21T01:22:11;101815.35;;;9.85;55.63
34241;BME280;20503;50.200;19.508;2024-02-21T01:23:12;101810.14;;;9.68;56.29
34241;BME280;20503;50.200;19.508;2024-02-21T01:24:13;101809.60;;;9.49;56.76
34241;BME280;20503;50.200;19.508;2024-02-21T01:25:15;101811.21;;;9.51;56.58
34241;BME280;20503;50.200;19.508;2024-02-21T01:26:21;101814.88;;;9.50;57.01
34241;BME280;20503;50.200;19.508;2024-02-21T01:27:22;101808.04;;;9.59;56.75
34241;BME280;20503;50.200;19.508;2024-02-21T01:28:23;101809.96;;;9.43;57.21
34241;BME280;20503;50.200;19.508;2024-02-21T01:29:24;101809.98;;;9.57;56.84
34241;BME280;20503;50.200;19.508;2024-02-21T01:30:26;101804.37;;;9.17;57.51
34241;BME280;20503;50.200;19.508;2024-02-21T01:31:28;101805.23;;;9.32;58.12
34241;BME280;20503;50.200;19.508;2024-02-21T01:32:29;101811.70;;;9.58;56.61
34241;BME280;20503;50.200;19.508;2024-02-21T01:33:30;101806.49;;;9.69;55.76
34241;BME280;20503;50.200;19.508;2024-02-21T01:34:35;101795.41;;;9.74;56.18
34241;BME280;20503;50.200;19.508;2024-02-21T01:35:38;101805.52;;;9.13;57.75
34241;BME280;20503;50.200;19.508;2024-02-21T01:36:40;101803.50;;;9.17;58.65
34241;BME280;20503;50.200;19.508;2024-02-21T01:37:43;101802.34;;;9.35;57.92
34241;BME280;20503;50.200;19.508;2024-02-21T01:38:44;101806.20;;;9.31;58.52
34241;BME280;20503;50.200;19.508;2024-02-21T01:39:45;101815.84;;;9.78;57.07
34241;BME280;20503;50.200;19.508;2024-02-21T01:41:12;101813.34;;;10.16;55.96
34241;BME280;20503;50.200;19.508;2024-02-21T01:42:20;101811.62;;;10.29;55.47
34241;BME280;20503;50.200;19.508;2024-02-21T01:43:21;101803.60;;;10.28;55.21
34241;BME280;20503;50.200;19.508;2024-02-21T01:44:22;101794.27;;;10.05;55.38
34241;BME280;20503;50.200;19.508;2024-02-21T01:45:24;101792.54;;;10.04;55.28
34241;BME280;20503;50.200;19.508;2024-02-21T01:46:25;101801.63;;;9.88;56.05
34241;BME280;20503;50.200;19.508;2024-02-21T01:47:32;101797.88;;;9.77;56.25
34241;BME280;20503;50.200;19.508;2024-02-21T01:48:34;101799.45;;;9.67;55.80
34241;BME280;20503;50.200;19.508;2024-02-21T01:49:37;101802.34;;;9.78;56.30
34241;BME280;20503;50.200;19.508;2024-02-21T01:50:38;101796.15;;;9.90;56.07
34241;BME280;20503;50.200;19.508;2024-02-21T01:51:40;101789.52;;;9.81;55.73
34241;BME280;20503;50.200;19.508;2024-02-21T01:52:43;101792.40;;;9.07;57.87
34241;BME280;20503;50.200;19.508;2024-02-21T01:53:48;101793.37;;;9.06;58.08
34241;BME280;20503;50.200;19.508;2024-02-21T01:54:50;101784.91;;;9.55;57.16
34241;BME280;20503;50.200;19.508;2024-02-21T01:56:16;101793.77;;;9.43;57.16
34241;BME280;20503;50.200;19.508;2024-02-21T01:57:18;101787.02;;;9.64;56.23
34241;BME280;20503;50.200;19.508;2024-02-21T01:58:20;101784.78;;;8.99;57.56
34241;BME280;20503;50.200;19.508;2024-02-21T01:59:22;101782.59;;;9.20;58.20
34241;BME280;20503;50.200;19.508;2024-02-21T02:00:24;101787.34;;;9.17;57.38
34241;BME280;20503;50.200;19.508;2024-02-21T02:01:25;101792.62;;;9.18;57.05
34241;BME280;20503;50.200;19.508;2024-02-21T02:02:27;101789.73;;;9.35;56.77
34241;BME280;20503;50.200;19.508;2024-02-21T02:03:28;101780.76;;;9.63;56.72
34241;BME280;20503;50.200;19.508;2024-02-21T02:04:32;101786.34;;;9.60;56.97
34241;BME280;20503;50.200;19.508;2024-02-21T02:05:34;101784.89;;;9.40;57.98
34241;BME280;20503;50.200;19.508;2024-02-21T02:06:35;101761.90;;;9.49;56.71
34241;BME280;20503;50.200;19.508;2024-02-21T02:07:53;101787.14;;;9.34;57.44
34241;BME280;20503;50.200;19.508;2024-02-21T02:08:54;101778.73;;;9.81;56.85
34241;BME280;20503;50.200;19.508;2024-02-21T02:09:56;101782.28;;;9.82;56.51
34241;BME280;20503;50.200;19.508;2024-02-21T02:11:16;101788.47;;;9.55;57.09
34241;BME280;20503;50.200;19.508;2024-02-21T02:12:19;101783.16;;;9.82;56.25
34241;BME280;20503;50.200;19.508;2024-02-21T02:13:20;101787.25;;;10.02;55.75
34241;BME280;20503;50.200;19.508;2024-02-21T02:14:31;101790.60;;;9.50;57.02
34241;BME280;20503;50.200;19.508;2024-02-21T02:15:41;101785.84;;;9.82;56.55
34241;BME280;20503;50.200;19.508;2024-02-21T02:16:46;101785.24;;;9.92;56.42
34241;BME280;20503;50.200;19.508;2024-02-21T02:17:49;101785.80;;;9.97;55.71
34241;BME280;20503;50.200;19.508;2024-02-21T02:18:50;101785.11;;;10.07;55.31
34241;BME280;20503;50.200;19.508;2024-02-21T02:19:51;101777.87;;;10.08;56.90
34241;BME280;20503;50.200;19.508;2024-02-21T02:20:52;101783.19;;;10.09;55.75
34241;BME280;20503;50.200;19.508;2024-02-21T02:21:59;101780.64;;;9.79;56.40
34241;BME280;20503;50.200;19.508;2024-02-21T02:23:11;101781.91;;;9.59;57.49
34241;BME280;20503;50.200;19.508;2024-02-21T02:24:13;101779.70;;;9.66;56.70
34241;BME280;20503;50.200;19.508;2024-02-21T02:25:32;101782.99;;;9.43;57.47
34241;BME280;20503;50.200;19.508;2024-02-21T02:26:33;101772.59;;;9.65;56.73
34241;BME280;20503;50.200;19.508;2024-02-21T02:27:42;101768.92;;;9.23;58.21
34241;BME280;20503;50.200;19.508;2024-02-21T02:28:45;101773.73;;;9.47;57.67
34241;BME280;20503;50.200;19.508;2024-02-21T02:29:47;101773.63;;;9.48;57.65
34241;BME280;20503;50.200;19.508;2024-02-21T02:30:49;101776.42;;;9.32;57.71
34241;BME280;20503;50.200;19.508;2024-02-21T02:32:11;101762.09;;;9.46;57.11
34241;BME280;20503;50.200;19.508;2024-02-21T02:33:13;101766.70;;;9.58;56.87
34241;BME280;20503;50.200;19.508;2024-02-21T02:34:15;101769.66;;;9.68;55.91
34241;BME280;20503;50.200;19.508;2024-02-21T02:35:16;101766.42;;;9.34;57.52
34241;BME280;20503;50.200;19.508;2024-02-21T02:36:17;101768.50;;;9.72;57.78
34241;BME280;20503;50.200;19.508;2024-02-21T02:37:19;101771.12;;;9.59;57.16
34241;BME280;20503;50.200;19.508;2024-02-21T02:38:20;101765.23;;;9.81;56.55
34241;BME280;20503;50.200;19.508;2024-02-21T02:39:21;101763.93;;;10.01;56.26
34241;BME280;20503;50.200;19.508;2024-02-21T02:40:33;101767.93;;;10.08;55.91
34241;BME280;20503;50.200;19.508;2024-02-21T02:41:38;101763.93;;;10.01;56.57
34241;BME280;20503;50.200;19.508;2024-02-21T02:42:40;101774.38;;;9.79;56.23
34241;BME280;20503;50.200;19.508;2024-02-21T02:43:41;101761.68;;;9.67;56.48
34241;BME280;20503;50.200;19.508;2024-02-21T02:44:43;101761.63;;;9.95;56.20
34241;BME280;20503;50.200;19.508;2024-02-21T02:45:44;101764.32;;;9.95;55.38
34241;BME280;20503;50.200;19.508;2024-02-21T02:46:58;101768.50;;;9.72;56.60
34241;BME280;20503;50.200;19.508;2024-02-21T02:47:59;101761.98;;;9.62;56.65
34241;BME280;20503;50.200;19.508;2024-02-21T02:49:01;101760.35;;;9.31;57.47
34241;BME280;20503;50.200;19.508;2024-02-21T02:50:27;101770.93;;;9.48;57.48
34241;BME280;20503;50.200;19.508;2024-02-21T02:51:29;101758.71;;;9.28;58.16
34241;BME280;20503;50.200;19.508;2024-02-21T02:52:30;101760.52;;;8.55;59.45
34241;BME280;20503;50.200;19.508;2024-02-21T02:53:32;101766.72;;;8.71;59.56
34241;BME280;20503;50.200;19.508;2024-02-21T02:54:33;101759.03;;;8.79;59.54
34241;BME280;20503;50.200;19.508;2024-02-21T02:55:35;101759.77;;;9.11;58.92
34241;BME280;20503;50.200;19.508;2024-02-21T02:56:37;101756.73;;;8.73;59.32
34241;BME280;20503;50.200;19.508;2024-02-21T02:57:38;101762.23;;;8.86;59.19
34241;BME280;20503;50.200;19.508;2024-02-21T02:58:40;101755.13;;;8.99;58.71
34241;BME280;20503;50.200;19.508;2024-02-21T02:59:41;101763.60;;;8.93;59.54
34241;BME280;20503;50.200;19.508;2024-02-21T03:00:42;101754.66;;;9.07;59.00
34241;BME280;20503;50.200;19.508;2024-02-21T03:01:43;101748.59;;;8.89;59.53
34241;BME280;20503;50.200;19.508;2024-02-21T03:02:48;101756.98;;;9.27;58.54
34241;BME280;20503;50.200;19.508;2024-02-21T03:03:50;101749.16;;;9.51;56.57
34241;BME280;20503;50.200;19.508;2024-02-21T03:04:52;101756.51;;;9.49;57.65
34241;BME280;20503;50.200;19.508;2024-02-21T03:05:54;101758.33;;;9.06;58.40
34241;BME280;20503;50.200;19.508;2024-02-21T03:06:55;101745.27;;;8.39;59.66
34241;BME280;20503;50.200;19.508;2024-02-21T03:08:16;101762.98;;;8.44;60.89
34241;BME280;20503;50.200;19.508;2024-02-21T03:09:17;101751.27;;;8.45;60.33
34241;BME280;20503;50.200;19.508;2024-02-21T03:10:18;101760.34;;;9.02;58.95
34241;BME280;20503;50.200;19.508;2024-02-21T03:11:20;101752.92;;;9.20;58.50
34241;BME280;20503;50.200;19.508;2024-02-21T03:12:27;101752.95;;;8.61;60.54
34241;BME280;20503;50.200;19.508;2024-02-21T03:13:58;101752.14;;;9.04;58.96
34241;BME280;20503;50.200;19.508;2024-02-21T03:14:59;101746.58;;;9.35;58.42
34241;BME280;20503;50.200;19.508;2024-02-21T03:16:00;101744.20;;;8.72;59.20
34241;BME280;20503;50.200;19.508;2024-02-21T03:17:02;101745.61;;;8.33;60.31
34241;BME280;20503;50.200;19.508;2024-02-21T03:18:04;101739.25;;;8.50;60.31
34241;BME280;20503;50.200;19.508;2024-02-21T03:19:06;101742.80;;;8.95;59.40
34241;BME280;20503;50.200;19.508;2024-02-21T03:20:08;101749.84;;;9.40;57.84
34241;BME280;20503;50.200;19.508;2024-02-21T03:21:10;101745.41;;;9.11;58.88
34241;BME280;20503;50.200;19.508;2024-02-21T03:22:12;101745.71;;;9.35;58.07
34241;BME280;20503;50.200;19.508;2024-02-21T03:23:33;101753.98;;;8.89;58.74
34241;BME280;20503;50.200;19.508;2024-02-21T03:24:35;101748.81;;;8.40;59.68
34241;BME280;20503;50.200;19.508;2024-02-21T03:25:42;101747.09;;;8.39;61.11
34241;BME280;20503;50.200;19.508;2024-02-21T03:26:43;101744.64;;;8.50;59.68
34241;BME280;20503;50.200;19.508;2024-02-21T03:27:45;101734.84;;;8.33;61.13
34241;BME280;20503;50.200;19.508;2024-02-21T03:28:46;101741.20;;;8.62;59.63
34241;BME280;20503;50.200;19.508;2024-02-21T03:29:47;101746.43;;;8.80;60.13
34241;BME280;20503;50.200;19.508;2024-02-21T03:30:50;101754.46;;;9.24;58.72
34241;BME280;20503;50.200;19.508;2024-02-21T03:31:51;101742.88;;;8.79;59.19
34241;BME280;20503;50.200;19.508;2024-02-21T03:32:53;101748.61;;;8.59;60.97
34241;BME280;20503;50.200;19.508;2024-02-21T03:33:55;101749.93;;;8.52;59.56
34241;BME280;20503;50.200;19.508;2024-02-21T03:35:09;101759.16;;;8.16;61.34
34241;BME280;20503;50.200;19.508;2024-02-21T03:36:14;101755.97;;;8.41;60.99
34241;BME280;20503;50.200;19.508;2024-02-21T03:37:17;101744.29;;;8.56;59.72
34241;BME280;20503;50.200;19.508;2024-02-21T03:38:20;101748.30;;;8.33;60.68
34241;BME280;20503;50.200;19.508;2024-02-21T03:39:33;101749.84;;;8.53;59.92
34241;BME280;20503;50.200;19.508;2024-02-21T03:40:34;101752.21;;;8.74;59.80
34241;BME280;20503;50.200;19.508;2024-02-21T03:41:35;101748.77;;;9.00;59.41
34241;BME280;20503;50.200;19.508;2024-02-21T03:42:37;101751.67;;;9.11;57.84
34241;BME280;20503;50.200;19.508;2024-02-21T03:43:39;101747.45;;;9.22;57.90
34241;BME280;20503;50.200;19.508;2024-02-21T03:44:40;101744.91;;;9.04;58.55
34241;BME280;20503;50.200;19.508;2024-02-21T03:45:41;101746.46;;;9.08;58.89
34241;BME280;20503;50.200;19.508;2024-02-21T03:46:42;101743.50;;;9.27;57.71
34241;BME280;20503;50.200;19.508;2024-02-21T03:47:43;101742.15;;;9.34;57.94
34241;BME280;20503;50.200;19.508;2024-02-21T03:48:45;101739.34;;;9.07;58.98
34241;BME280;20503;50.200;19.508;2024-02-21T03:49:47;101744.16;;;9.02;59.20
34241;BME280;20503;50.200;19.508;2024-02-21T03:50:48;101743.19;;;8.89;58.98
34241;BME280;20503;50.200;19.508;2024-02-21T03:51:49;101737.12;;;9.28;57.71
34241;BME280;20503;50.200;19.508;2024-02-21T03:52:51;101734.73;;;9.24;57.56
34241;BME280;20503;50.200;19.508;2024-02-21T03:53:52;101732.98;;;9.08;58.50
34241;BME280;20503;50.200;19.508;2024-02-21T03:54:53;101735.31;;;9.14;57.83
34241;BME280;20503;50.200;19.508;2024-02-21T03:55:56;101730.60;;;9.18;58.12
34241;BME280;20503;50.200;19.508;2024-02-21T03:57:05;101737.53;;;9.22;58.22
34241;BME280;20503;50.200;19.508;2024-02-21T03:58:07;101730.31;;;9.37;57.92
34241;BME280;20503;50.200;19.508;2024-02-21T03:59:08;101734.65;;;9.25;57.68
34241;BME280;20503;50.200;19.508;2024-02-21T04:00:11;101735.59;;;9.24;58.01
34241;BME280;20503;50.200;19.508;2024-02-21T04:01:15;101735.88;;;9.20;57.54
34241;BME280;20503;50.200;19.508;2024-02-21T04:02:17;101732.70;;;9.27;57.53
34241;BME280;20503;50.200;19.508;2024-02-21T04:03:18;101733.27;;;9.32;57.18
34241;BME280;20503;50.200;19.508;2024-02-21T04:04:20;101726.53;;;9.54;57.09
34241;BME280;20503;50.200;19.508;2024-02-21T04:05:22;101729.53;;;9.35;56.87
34241;BME280;20503;50.200;19.508;2024-02-21T04:06:23;101733.67;;;9.26;56.98
34241;BME280;20503;50.200;19.508;2024-02-21T04:07:24;101733.97;;;9.22;57.62
34241;BME280;20503;50.200;19.508;2024-02-21T04:08:25;101733.98;;;8.63;58.94
34241;BME280;20503;50.200;19.508;2024-02-21T04:09:27;101739.16;;;8.36;60.40
34241;BME280;20503;50.200;19.508;2024-02-21T04:10:28;101733.00;;;8.50;59.92
34241;BME280;20503;50.200;19.508;2024-02-21T04:11:29;101740.02;;;9.11;58.80
34241;BME280;20503;50.200;19.508;2024-02-21T04:12:30;101740.59;;;9.59;57.57
34241;BME280;20503;50.200;19.508;2024-02-21T04:13:33;101731.25;;;9.36;57.50
34241;BME280;20503;50.200;19.508;2024-02-21T04:14:34;101741.37;;;9.32;57.60
34241;BME280;20503;50.200;19.508;2024-02-21T04:15:36;101739.25;;;9.23;57.42
34241;BME280;20503;50.200;19.508;2024-02-21T04:16:37;101741.62;;;8.71;58.88
34241;BME280;20503;50.200;19.508;2024-02-21T04:17:41;101741.64;;;8.40;60.12
34241;BME280;20503;50.200;19.508;2024-02-21T04:18:42;101739.14;;;8.52;60.72
34241;BME280;20503;50.200;19.508;2024-02-21T04:19:44;101740.96;;;8.81;59.19
34241;BME280;20503;50.200;19.508;2024-02-21T04:20:45;101740.11;;;8.95;59.04
34241;BME280;20503;50.200;19.508;2024-02-21T04:21:47;101739.66;;;9.17;58.71
34241;BME280;20503;50.200;19.508;2024-02-21T04:22:48;101742.69;;;8.82;58.90
34241;BME280;20503;50.200;19.508;2024-02-21T04:23:50;101729.33;;;8.95;58.46
34241;BME280;20503;50.200;19.508;2024-02-21T04:24:51;101736.73;;;8.92;58.94
34241;BME280;20503;50.200;19.508;2024-02-21T04:25:52;101726.16;;;8.88;59.19
34241;BME280;20503;50.200;19.508;2024-02-21T04:26:54;101731.27;;;9.22;58.61
34241;BME280;20503;50.200;19.508;2024-02-21T04:27:55;101733.64;;;8.83;59.35
34241;BME280;20503;50.200;19.508;2024-02-21T04:28:56;101733.02;;;8.64;59.82
34241;BME280;20503;50.200;19.508;2024-02-21T04:29:58;101734.33;;;8.87;59.81
34241;BME280;20503;50.200;19.508;2024-02-21T04:31:20;101738.48;;;9.35;58.12
34241;BME280;20503;50.200;19.508;2024-02-21T04:32:22;101741.14;;;9.64;56.77
34241;BME280;20503;50.200;19.508;2024-02-21T04:33:23;101739.24;;;9.52;57.48
34241;BME280;20503;50.200;19.508;2024-02-21T04:34:25;101740.66;;;9.72;57.12
34241;BME280;20503;50.200;19.508;2024-02-21T04:35:27;101737.32;;;9.95;56.26
34241;BME280;20503;50.200;19.508;2024-02-21T04:36:28;101737.17;;;10.11;55.91
34241;BME280;20503;50.200;19.508;2024-02-21T04:37:30;101730.78;;;10.26;55.91
34241;BME280;20503;50.200;19.508;2024-02-21T04:38:32;101741.87;;;10.22;55.41
34241;BME280;20503;50.200;19.508;2024-02-21T04:39:33;101741.59;;;10.26;55.53
34241;BME280;20503;50.200;19.508;2024-02-21T04:40:53;101731.05;;;9.39;57.03
34241;BME280;20503;50.200;19.508;2024-02-21T04:42:12;101742.25;;;9.19;57.72
34241;BME280;20503;50.200;19.508;2024-02-21T04:43:14;101728.48;;;9.23;58.36
34241;BME280;20503;50.200;19.508;2024-02-21T04:44:15;101733.09;;;9.07;58.12
34241;BME280;20503;50.200;19.508;2024-02-21T04:45:16;101731.82;;;9.12;57.78
34241;BME280;20503;50.200;19.508;2024-02-21T04:46:19;101725.01;;;8.93;58.49
34241;BME280;20503;50.200;19.508;2024-02-21T04:47:21;101729.35;;;9.09;58.62
34241;BME280;20503;50.200;19.508;2024-02-21T04:48:26;101730.80;;;9.01;58.55
34241;BME280;20503;50.200;19.508;2024-02-21T04:49:27;101735.03;;;9.19;57.84
34241;BME280;20503;50.200;19.508;2024-02-21T04:50:28;101726.83;;;9.35;57.75
34241;BME280;20503;50.200;19.508;2024-02-21T04:51:29;101727.38;;;9.54;57.47
34241;BME280;20503;50.200;19.508;2024-02-21T04:52:55;101734.05;;;9.49;56.89
34241;BME280;20503;50.200;19.508;2024-02-21T04:53:56;101727.70;;;9.50;56.32
34241;BME280;20503;50.200;19.508;2024-02-21T04:54:57;101722.80;;;9.13;57.47
34241;BME280;20503;50.200;19.508;2024-02-21T04:56:05;101726.13;;;8.74;58.75
34241;BME280;20503;50.200;19.508;2024-02-21T04:57:06;101723.37;;;8.46;59.56
34241;BME280;20503;50.200;19.508;2024-02-21T04:58:08;101720.72;;;8.14;60.85
34241;BME280;20503;50.200;19.508;2024-02-21T04:59:10;101724.62;;;8.84;58.89
34241;BME280;20503;50.200;19.508;2024-02-21T05:00:12;101725.69;;;9.10;58.19
34241;BME280;20503;50.200;19.508;2024-02-21T05:01:14;101718.63;;;9.51;56.91
34241;BME280;20503;50.200;19.508;2024-02-21T05:02:16;101723.93;;;9.94;55.82
34241;BME280;20503;50.200;19.508;2024-02-21T05:03:21;101721.59;;;10.02;55.49
34241;BME280;20503;50.200;19.508;2024-02-21T05:04:23;101718.27;;;10.11;55.47
34241;BME280;20503;50.200;19.508;2024-02-21T05:05:24;101715.69;;;10.09;55.69
34241;BME280;20503;50.200;19.508;2024-02-21T05:06:25;101716.12;;;10.16;55.08
34241;BME280;20503;50.200;19.508;2024-02-21T05:07:27;101715.24;;;10.30;55.28
34241;BME280;20503;50.200;19.508;2024-02-21T05:08:28;101710.73;;;10.43;54.44
34241;BME280;20503;50.200;19.508;2024-02-21T05:09:29;101709.77;;;10.17;54.91
34241;BME280;20503;50.200;19.508;2024-02-21T05:10:30;101719.91;;;10.13;54.30
34241;BME280;20503;50.200;19.508;2024-02-21T05:11:32;101713.53;;;10.14;54.46
34241;BME280;20503;50.200;19.508;2024-02-21T05:12:48;101726.02;;;10.03;54.64
34241;BME280;20503;50.200;19.508;2024-02-21T05:13:56;101725.17;;;9.61;55.47
34241;BME280;20503;50.200;19.508;2024-02-21T05:14:59;101714.13;;;9.37;56.18
34241;BME280;20503;50.200;19.508;2024-02-21T05:16:00;101713.60;;;9.45;55.66
34241;BME280;20503;50.200;19.508;2024-02-21T05:17:04;101713.43;;;9.48;56.03
34241;BME280;20503;50.200;19.508;2024-02-21T05:18:05;101709.13;;;9.02;57.15
34241;BME280;20503;50.200;19.508;2024-02-21T05:19:06;101711.13;;;9.42;56.33
34241;BME280;20503;50.200;19.508;2024-02-21T05:20:09;101711.59;;;9.48;56.78
34241;BME280;20503;50.200;19.508;2024-02-21T05:21:11;101714.08;;;9.66;57.31
34241;BME280;20503;50.200;19.508;2024-02-21T05:22:13;101711.13;;;9.83;55.37
34241;BME280;20503;50.200;19.508;2024-02-21T05:23:14;101715.00;;;9.79;55.27
34241;BME280;20503;50.200;19.508;2024-02-21T05:24:15;101718.50;;;9.67;55.75
34241;BME280;20503;50.200;19.508;2024-02-21T05:25:17;101709.26;;;9.56;55.40
34241;BME280;20503;50.200;19.508;2024-02-21T05:26:44;101718.38;;;9.68;55.79
34241;BME280;20503;50.200;19.508;2024-02-21T05:27:45;101698.95;;;9.63;56.14
34241;BME280;20503;50.200;19.508;2024-02-21T05:28:46;101707.90;;;9.63;56.09
34241;BME280;20503;50.200;19.508;2024-02-21T05:29:48;101697.65;;;9.27;56.55
34241;BME280;20503;50.200;19.508;2024-02-21T05:30:50;101706.14;;;9.07;56.96
34241;BME280;20503;50.200;19.508;2024-02-21T05:31:57;101711.13;;;9.27;57.10